sensor_id;sensor_type;location;lat;lon;timestamp;temperature;humidity
41294;DHT22;27037;52.010;4.446;2024-01-10T00:01:18;-2.70;99.90
41294;DHT22;27037;52.010;4.446;2024-01-10T00:03:44;-2.70;99.90
41294;DHT22;27037;52.010;4.446;2024-01-10T00:06:10;-2.70;99.90
41294;DHT22;27037;52.010;4.446;2024-01-10T00:08:37;-2.70;99.90
41294;DHT22;27037;52.010;4.446;2024-01-10T00:11:02;-2.70;99.90
41294;DHT22;27037;52.010;4.446;2024-01-10T00:13:29;-2.70;99.90
41294;DHT22;27037;52.010;4.446;2024-01-10T00:15:55;-2.70;99.90
41294;DHT22;27037;52.010;4.446;2024-01-10T00:18:21;-2.70;99.90
41294;DHT22;27037;52.010;4.446;2024-01-10T00:20:47;-2.70;99.90
41294;DHT22;27037;52.010;4.446;2024-01-10T00:23:12;-2.80;99.90
41294;DHT22;27037;52.010;4.446;2024-01-10T00:25:38;-2.70;99.90
41294;DHT22;27037;52.010;4.446;2024-01-10T00:28:05;-2.70;99.90
41294;DHT22;27037;52.010;4.446;2024-01-10T00:30:30;-2.70;99.90
41294;DHT22;27037;52.010;4.446;2024-01-10T00:32:57;-2.80;99.90
41294;DHT22;27037;52.010;4.446;2024-01-10T00:35:22;-2.80;99.90
41294;DHT22;27037;52.010;4.446;2024-01-10T00:37:48;-2.80;99.90
41294;DHT22;27037;52.010;4.446;2024-01-10T00:40:14;-2.80;99.90
41294;DHT22;27037;52.010;4.446;2024-01-10T00:42:39;-2.80;99.90
41294;DHT22;27037;52.010;4.446;2024-01-10T00:45:05;-2.80;99.90
41294;DHT22;27037;52.010;4.446;2024-01-10T00:47:31;-2.80;99.90
41294;DHT22;27037;52.010;4.446;2024-01-10T00:49:56;-2.80;99.90
41294;DHT22;27037;52.010;4.446;2024-01-10T00:52:22;-2.80;99.90
41294;DHT22;27037;52.010;4.446;2024-01-10T00:54:47;-2.80;99.90
41294;DHT22;27037;52.010;4.446;2024-01-10T00:57:13;-2.80;99.90
41294;DHT22;27037;52.010;4.446;2024-01-10T00:59:40;-2.80;99.90
41294;DHT22;27037;52.010;4.446;2024-01-10T01:02:05;-2.90;99.90
41294;DHT22;27037;52.010;4.446;2024-01-10T01:04:31;-2.90;99.90
41294;DHT22;27037;52.010;4.446;2024-01-10T01:06:57;-2.80;99.90
41294;DHT22;27037;52.010;4.446;2024-01-10T01:09:22;-2.90;99.90
41294;DHT22;27037;52.010;4.446;2024-01-10T01:11:48;-2.80;99.90
41294;DHT22;27037;52.010;4.446;2024-01-10T01:14:13;-2.80;99.90
41294;DHT22;27037;52.010;4.446;2024-01-10T01:16:39;-2.90;99.90
41294;DHT22;27037;52.010;4.446;2024-01-10T01:19:05;-2.90;99.90
41294;DHT22;27037;52.010;4.446;2024-01-10T01:21:30;-2.90;99.90
41294;DHT22;27037;52.010;4.446;2024-01-10T01:23:56;-2.90;99.90
41294;DHT22;27037;52.010;4.446;2024-01-10T01:26:21;-2.90;99.90
41294;DHT22;27037;52.010;4.446;2024-01-10T01:28:47;-2.90;99.90
41294;DHT22;27037;52.010;4.446;2024-01-10T01:31:12;-2.90;99.90
41294;DHT22;27037;52.010;4.446;2024-01-10T01:33:38;-2.90;99.90
41294;DHT22;27037;52.010;4.446;2024-01-10T01:36:05;-3.00;99.90
41294;DHT22;27037;52.010;4.446;2024-01-10T01:38:31;-2.90;99.90
41294;DHT22;27037;52.010;4.446;2024-01-10T01:40:57;-2.90;99.90
41294;DHT22;27037;52.010;4.446;2024-01-10T01:43:25;-2.90;99.90
41294;DHT22;27037;52.010;4.446;2024-01-10T01:45:52;-3.00;99.90
41294;DHT22;27037;52.010;4.446;2024-01-10T01:48:19;-3.00;99.90
41294;DHT22;27037;52.010;4.446;2024-01-10T01:50:46;-3.00;99.90
41294;DHT22;27037;52.010;4.446;2024-01-10T01:53:16;-3.00;99.90
41294;DHT22;27037;52.010;4.446;2024-01-10T01:55:43;-3.00;99.90
41294;DHT22;27037;52.010;4.446;2024-01-10T01:58:10;-3.00;99.90
41294;DHT22;27037;52.010;4.446;2024-01-10T02:00:36;-3.00;99.90
41294;DHT22;27037;52.010;4.446;2024-01-10T02:03:02;-3.10;99.90
41294;DHT22;27037;52.010;4.446;2024-01-10T02:05:28;-3.10;99.90
41294;DHT22;27037;52.010;4.446;2024-01-10T02:07:54;-3.10;99.90
41294;DHT22;27037;52.010;4.446;2024-01-10T02:10:20;-3.10;99.90
41294;DHT22;27037;52.010;4.446;2024-01-10T02:12:46;-3.10;99.90
41294;DHT22;27037;52.010;4.446;2024-01-10T02:15:13;-3.10;99.90
41294;DHT22;27037;52.010;4.446;2024-01-10T02:17:39;-3.10;99.90
41294;DHT22;27037;52.010;4.446;2024-01-10T02:20:14;-3.10;99.90
41294;DHT22;27037;52.010;4.446;2024-01-10T02:22:44;-3.10;99.90
41294;DHT22;27037;52.010;4.446;2024-01-10T02:25:10;-3.10;99.90
41294;DHT22;27037;52.010;4.446;2024-01-10T02:27:37;-3.20;99.90
41294;DHT22;27037;52.010;4.446;2024-01-10T02:30:03;-3.10;99.90
41294;DHT22;27037;52.010;4.446;2024-01-10T02:32:30;-3.10;99.90
41294;DHT22;27037;52.010;4.446;2024-01-10T02:34:56;-3.10;99.90
41294;DHT22;27037;52.010;4.446;2024-01-10T02:37:21;-3.10;99.90
41294;DHT22;27037;52.010;4.446;2024-01-10T02:39:47;-3.10;99.90
41294;DHT22;27037;52.010;4.446;2024-01-10T02:42:12;-3.20;99.90
41294;DHT22;27037;52.010;4.446;2024-01-10T02:44:38;-3.10;99.90
41294;DHT22;27037;52.010;4.446;2024-01-10T02:47:07;-3.10;99.90
41294;DHT22;27037;52.010;4.446;2024-01-10T02:49:33;-3.20;99.90
41294;DHT22;27037;52.010;4.446;2024-01-10T02:51:59;-3.20;99.90
41294;DHT22;27037;52.010;4.446;2024-01-10T02:54:25;-3.20;99.90
41294;DHT22;27037;52.010;4.446;2024-01-10T02:56:51;-3.20;99.90
41294;DHT22;27037;52.010;4.446;2024-01-10T02:59:16;-3.20;99.90
41294;DHT22;27037;52.010;4.446;2024-01-10T03:01:43;-3.20;99.90
41294;DHT22;27037;52.010;4.446;2024-01-10T03:04:09;-3.20;99.90
41294;DHT22;27037;52.010;4.446;2024-01-10T03:06:34;-3.20;99.90
41294;DHT22;27037;52.010;4.446;2024-01-10T03:09:00;-3.20;99.90
41294;DHT22;27037;52.010;4.446;2024-01-10T03:11:25;-3.20;99.90
41294;DHT22;27037;52.010;4.446;2024-01-10T03:14:00;-3.30;99.90
41294;DHT22;27037;52.010;4.446;2024-01-10T03:16:26;-3.30;99.90
41294;DHT22;27037;52.010;4.446;2024-01-10T03:18:51;-3.20;99.90
41294;DHT22;27037;52.010;4.446;2024-01-10T03:21:17;-3.30;99.90
41294;DHT22;27037;52.010;4.446;2024-01-10T03:23:48;-3.30;99.90
41294;DHT22;27037;52.010;4.446;2024-01-10T03:26:14;-3.30;99.90
41294;DHT22;27037;52.010;4.446;2024-01-10T03:28:39;-3.30;99.90
41294;DHT22;27037;52.010;4.446;2024-01-10T03:31:05;-3.30;99.90
41294;DHT22;27037;52.010;4.446;2024-01-10T03:33:30;-3.30;99.90
41294;DHT22;27037;52.010;4.446;2024-01-10T03:35:56;-3.30;99.90
41294;DHT22;27037;52.010;4.446;2024-01-10T03:38:21;-3.30;99.90
41294;DHT22;27037;52.010;4.446;2024-01-10T03:40:47;-3.30;99.90
41294;DHT22;27037;52.010;4.446;2024-01-10T03:43:13;-3.30;99.90
41294;DHT22;27037;52.010;4.446;2024-01-10T03:45:39;-3.30;99.90
41294;DHT22;27037;52.010;4.446;2024-01-10T03:48:05;-3.30;99.90
41294;DHT22;27037;52.010;4.446;2024-01-10T03:50:31;-3.30;99.90
41294;DHT22;27037;52.010;4.446;2024-01-10T03:52:56;-3.30;99.90
41294;DHT22;27037;52.010;4.446;2024-01-10T03:55:22;-3.30;99.90
41294;DHT22;27037;52.010;4.446;2024-01-10T03:57:47;-3.30;99.90
41294;DHT22;27037;52.010;4.446;2024-01-10T04:00:13;-3.40;99.90
41294;DHT22;27037;52.010;4.446;2024-01-10T04:02:39;-3.40;99.90
41294;DHT22;27037;52.010;4.446;2024-01-10T04:05:08;-3.40;99.90
41294;DHT22;27037;52.010;4.446;2024-01-10T04:07:36;-3.40;99.90
41294;DHT22;27037;52.010;4.446;2024-01-10T04:10:02;-3.40;99.90
41294;DHT22;27037;52.010;4.446;2024-01-10T04:12:28;-3.40;99.90
41294;DHT22;27037;52.010;4.446;2024-01-10T04:14:53;-3.40;99.90
41294;DHT22;27037;52.010;4.446;2024-01-10T04:17:19;-3.40;99.90
41294;DHT22;27037;52.010;4.446;2024-01-10T04:19:44;-3.40;99.90
41294;DHT22;27037;52.010;4.446;2024-01-10T04:22:10;-3.40;99.90
41294;DHT22;27037;52.010;4.446;2024-01-10T04:24:36;-3.40;99.90
41294;DHT22;27037;52.010;4.446;2024-01-10T04:27:01;-3.40;99.90
41294;DHT22;27037;52.010;4.446;2024-01-10T04:29:27;-3.40;99.90
41294;DHT22;27037;52.010;4.446;2024-01-10T04:31:52;-3.40;99.90
41294;DHT22;27037;52.010;4.446;2024-01-10T04:34:18;-3.50;99.90
41294;DHT22;27037;52.010;4.446;2024-01-10T04:36:44;-3.50;99.90
41294;DHT22;27037;52.010;4.446;2024-01-10T04:39:09;-3.50;99.90
41294;DHT22;27037;52.010;4.446;2024-01-10T04:41:35;-3.50;99.90
41294;DHT22;27037;52.010;4.446;2024-01-10T04:44:00;-3.50;99.90
41294;DHT22;27037;52.010;4.446;2024-01-10T04:46:26;-3.50;99.90
41294;DHT22;27037;52.010;4.446;2024-01-10T04:48:52;-3.50;99.90
41294;DHT22;27037;52.010;4.446;2024-01-10T04:51:17;-3.50;99.90
41294;DHT22;27037;52.010;4.446;2024-01-10T04:53:43;-3.50;99.90
41294;DHT22;27037;52.010;4.446;2024-01-10T04:56:08;-3.50;99.90
41294;DHT22;27037;52.010;4.446;2024-01-10T04:58:34;-3.50;99.90
41294;DHT22;27037;52.010;4.446;2024-01-10T05:01:00;-3.50;99.90
41294;DHT22;27037;52.010;4.446;2024-01-10T05:03:26;-3.50;99.90
41294;DHT22;27037;52.010;4.446;2024-01-10T05:05:51;-3.50;99.90
41294;DHT22;27037;52.010;4.446;2024-01-10T05:08:17;-3.50;99.90
41294;DHT22;27037;52.010;4.446;2024-01-10T05:10:45;-3.50;99.90
41294;DHT22;27037;52.010;4.446;2024-01-10T05:13:12;-3.50;99.90
41294;DHT22;27037;52.010;4.446;2024-01-10T05:15:38;-3.50;99.90
41294;DHT22;27037;52.010;4.446;2024-01-10T05:18:03;-3.50;99.90
41294;DHT22;27037;52.010;4.446;2024-01-10T05:20:29;-3.50;99.90
41294;DHT22;27037;52.010;4.446;2024-01-10T05:22:55;-3.50;99.90
41294;DHT22;27037;52.010;4.446;2024-01-10T05:25:24;-3.50;99.90
41294;DHT22;27037;52.010;4.446;2024-01-10T05:27:50;-3.50;99.90
41294;DHT22;27037;52.010;4.446;2024-01-10T05:30:15;-3.50;99.90
41294;DHT22;27037;52.010;4.446;2024-01-10T05:32:41;-3.60;99.90
41294;DHT22;27037;52.010;4.446;2024-01-10T05:35:08;-3.60;99.90
41294;DHT22;27037;52.010;4.446;2024-01-10T05:37:36;-3.60;99.90
41294;DHT22;27037;52.010;4.446;2024-01-10T05:40:01;-3.60;99.90
41294;DHT22;27037;52.010;4.446;2024-01-10T05:42:27;-3.60;99.90
41294;DHT22;27037;52.010;4.446;2024-01-10T05:44:53;-3.60;99.90
41294;DHT22;27037;52.010;4.446;2024-01-10T05:47:18;-3.60;99.90
41294;DHT22;27037;52.010;4.446;2024-01-10T05:49:44;-3.60;99.90
41294;DHT22;27037;52.010;4.446;2024-01-10T05:52:09;-3.60;99.90
41294;DHT22;27037;52.010;4.446;2024-01-10T05:54:35;-3.60;99.90
41294;DHT22;27037;52.010;4.446;2024-01-10T05:57:00;-3.70;99.90
41294;DHT22;27037;52.010;4.446;2024-01-10T05:59:27;-3.70;99.90
41294;DHT22;27037;52.010;4.446;2024-01-10T06:01:53;-3.60;99.90
41294;DHT22;27037;52.010;4.446;2024-01-10T06:04:18;-3.70;99.90
41294;DHT22;27037;52.010;4.446;2024-01-10T06:06:44;-3.60;99.90
41294;DHT22;27037;52.010;4.446;2024-01-10T06:09:10;-3.60;99.90
41294;DHT22;27037;52.010;4.446;2024-01-10T06:11:43;-3.60;99.90
41294;DHT22;27037;52.010;4.446;2024-01-10T06:14:09;-3.60;99.90
41294;DHT22;27037;52.010;4.446;2024-01-10T06:16:34;-3.60;99.90
41294;DHT22;27037;52.010;4.446;2024-01-10T06:19:00;-3.60;99.90
41294;DHT22;27037;52.010;4.446;2024-01-10T06:21:26;-3.60;99.90
41294;DHT22;27037;52.010;4.446;2024-01-10T06:23:52;-3.60;99.90
41294;DHT22;27037;52.010;4.446;2024-01-10T06:26:17;-3.60;99.90
41294;DHT22;27037;52.010;4.446;2024-01-10T06:28:43;-3.60;99.90
41294;DHT22;27037;52.010;4.446;2024-01-10T06:31:09;-3.60;99.90
41294;DHT22;27037;52.010;4.446;2024-01-10T06:33:34;-3.60;99.90
41294;DHT22;27037;52.010;4.446;2024-01-10T06:36:00;-3.60;99.90
41294;DHT22;27037;52.010;4.446;2024-01-10T06:38:25;-3.60;99.90
41294;DHT22;27037;52.010;4.446;2024-01-10T06:40:51;-3.60;99.90
41294;DHT22;27037;52.010;4.446;2024-01-10T06:43:16;-3.60;99.90
41294;DHT22;27037;52.010;4.446;2024-01-10T06:45:42;-3.60;99.90
41294;DHT22;27037;52.010;4.446;2024-01-10T06:48:08;-3.60;99.90
41294;DHT22;27037;52.010;4.446;2024-01-10T06:50:34;-3.60;99.90
41294;DHT22;27037;52.010;4.446;2024-01-10T06:53:00;-3.60;99.90
41294;DHT22;27037;52.010;4.446;2024-01-10T06:55:25;-3.70;99.90
41294;DHT22;27037;52.010;4.446;2024-01-10T06:57:51;-3.70;99.90
41294;DHT22;27037;52.010;4.446;2024-01-10T07:00:22;-3.70;99.90
41294;DHT22;27037;52.010;4.446;2024-01-10T07:02:48;-3.70;99.90
41294;DHT22;27037;52.010;4.446;2024-01-10T07:05:14;-3.70;99.90
41294;DHT22;27037;52.010;4.446;2024-01-10T07:07:40;-3.70;99.90
41294;DHT22;27037;52.010;4.446;2024-01-10T07:10:06;-3.70;99.90
41294;DHT22;27037;52.010;4.446;2024-01-10T07:12:33;-3.70;99.90
41294;DHT22;27037;52.010;4.446;2024-01-10T07:14:59;-3.70;99.90
41294;DHT22;27037;52.010;4.446;2024-01-10T07:17:25;-3.70;99.90
41294;DHT22;27037;52.010;4.446;2024-01-10T07:19:50;-3.70;99.90
41294;DHT22;27037;52.010;4.446;2024-01-10T07:22:16;-3.70;99.90
41294;DHT22;27037;52.010;4.446;2024-01-10T07:24:43;-3.70;99.90
41294;DHT22;27037;52.010;4.446;2024-01-10T07:27:09;-3.70;99.90
41294;DHT22;27037;52.010;4.446;2024-01-10T07:29:35;-3.70;99.90
41294;DHT22;27037;52.010;4.446;2024-01-10T07:32:00;-3.70;99.90
41294;DHT22;27037;52.010;4.446;2024-01-10T07:34:26;-3.70;99.90
41294;DHT22;27037;52.010;4.446;2024-01-10T07:36:52;-3.80;99.90
41294;DHT22;27037;52.010;4.446;2024-01-10T07:39:19;-3.80;99.90
41294;DHT22;27037;52.010;4.446;2024-01-10T07:41:45;-3.70;99.90
41294;DHT22;27037;52.010;4.446;2024-01-10T07:44:11;-3.70;99.90
41294;DHT22;27037;52.010;4.446;2024-01-10T07:46:36;-3.80;99.90
41294;DHT22;27037;52.010;4.446;2024-01-10T07:49:05;-3.70;99.90
41294;DHT22;27037;52.010;4.446;2024-01-10T07:51:31;-3.70;99.90
41294;DHT22;27037;52.010;4.446;2024-01-10T07:53:58;-3.70;99.90
41294;DHT22;27037;52.010;4.446;2024-01-10T07:56:24;-3.70;99.90
41294;DHT22;27037;52.010;4.446;2024-01-10T07:58:50;-3.70;99.90
41294;DHT22;27037;52.010;4.446;2024-01-10T08:01:17;-3.70;99.90
41294;DHT22;27037;52.010;4.446;2024-01-10T08:03:43;-3.70;99.90
41294;DHT22;27037;52.010;4.446;2024-01-10T08:06:08;-3.80;99.90
41294;DHT22;27037;52.010;4.446;2024-01-10T08:08:35;-3.80;99.90
41294;DHT22;27037;52.010;4.446;2024-01-10T08:11:02;-3.80;99.90
41294;DHT22;27037;52.010;4.446;2024-01-10T08:13:27;-3.80;99.90
41294;DHT22;27037;52.010;4.446;2024-01-10T08:15:53;-3.80;99.90
41294;DHT22;27037;52.010;4.446;2024-01-10T08:18:19;-3.80;99.90
41294;DHT22;27037;52.010;4.446;2024-01-10T08:20:45;-3.70;99.90
41294;DHT22;27037;52.010;4.446;2024-01-10T08:23:11;-3.70;99.90
41294;DHT22;27037;52.010;4.446;2024-01-10T08:25:36;-3.70;99.90
41294;DHT22;27037;52.010;4.446;2024-01-10T08:28:03;-3.70;99.90
41294;DHT22;27037;52.010;4.446;2024-01-10T08:30:29;-3.70;99.90
41294;DHT22;27037;52.010;4.446;2024-01-10T08:32:54;-3.70;99.90
41294;DHT22;27037;52.010;4.446;2024-01-10T08:35:20;-3.70;99.90
41294;DHT22;27037;52.010;4.446;2024-01-10T08:37:46;-3.70;99.90
41294;DHT22;27037;52.010;4.446;2024-01-10T08:40:12;-3.60;99.90
41294;DHT22;27037;52.010;4.446;2024-01-10T08:42:40;-3.60;99.90
41294;DHT22;27037;52.010;4.446;2024-01-10T08:45:06;-3.60;99.90
41294;DHT22;27037;52.010;4.446;2024-01-10T08:47:35;-3.60;99.90
41294;DHT22;27037;52.010;4.446;2024-01-10T08:50:01;-3.60;99.90
41294;DHT22;27037;52.010;4.446;2024-01-10T08:52:27;-3.50;99.90
41294;DHT22;27037;52.010;4.446;2024-01-10T08:54:53;-3.50;99.90
41294;DHT22;27037;52.010;4.446;2024-01-10T08:57:18;-3.50;99.90
41294;DHT22;27037;52.010;4.446;2024-01-10T08:59:44;-3.50;99.90
41294;DHT22;27037;52.010;4.446;2024-01-10T09:02:09;-3.40;99.90
41294;DHT22;27037;52.010;4.446;2024-01-10T09:04:35;-3.30;99.90
41294;DHT22;27037;52.010;4.446;2024-01-10T09:07:01;-3.30;99.90
41294;DHT22;27037;52.010;4.446;2024-01-10T09:09:27;-3.20;99.90
41294;DHT22;27037;52.010;4.446;2024-01-10T09:11:53;-3.20;99.90
41294;DHT22;27037;52.010;4.446;2024-01-10T09:14:18;-3.20;99.90
41294;DHT22;27037;52.010;4.446;2024-01-10T09:16:44;-3.10;99.90
41294;DHT22;27037;52.010;4.446;2024-01-10T09:19:10;-3.00;99.90
41294;DHT22;27037;52.010;4.446;2024-01-10T09:21:36;-3.00;99.90
41294;DHT22;27037;52.010;4.446;2024-01-10T09:24:02;-2.90;99.90
41294;DHT22;27037;52.010;4.446;2024-01-10T09:26:30;-2.90;99.90
41294;DHT22;27037;52.010;4.446;2024-01-10T09:28:56;-2.80;99.90
41294;DHT22;27037;52.010;4.446;2024-01-10T09:31:21;-2.70;99.90
41294;DHT22;27037;52.010;4.446;2024-01-10T09:33:47;-2.70;99.90
41294;DHT22;27037;52.010;4.446;2024-01-10T09:36:13;-2.60;99.90
41294;DHT22;27037;52.010;4.446;2024-01-10T09:38:40;-2.60;99.90
41294;DHT22;27037;52.010;4.446;2024-01-10T09:41:05;-2.50;99.90
41294;DHT22;27037;52.010;4.446;2024-01-10T09:43:31;-2.40;99.90
41294;DHT22;27037;52.010;4.446;2024-01-10T09:46:00;-2.40;99.90
41294;DHT22;27037;52.010;4.446;2024-01-10T09:48:26;-2.30;99.90
41294;DHT22;27037;52.010;4.446;2024-01-10T09:50:52;-2.30;99.90
41294;DHT22;27037;52.010;4.446;2024-01-10T09:53:27;-2.20;99.90
41294;DHT22;27037;52.010;4.446;2024-01-10T09:55:52;-2.10;99.90
41294;DHT22;27037;52.010;4.446;2024-01-10T09:58:23;-2.10;99.90
41294;DHT22;27037;52.010;4.446;2024-01-10T10:00:49;-2.10;99.90
41294;DHT22;27037;52.010;4.446;2024-01-10T10:03:16;-2.00;99.90
41294;DHT22;27037;52.010;4.446;2024-01-10T10:05:43;-2.00;99.90
41294;DHT22;27037;52.010;4.446;2024-01-10T10:08:11;-1.90;99.90
41294;DHT22;27037;52.010;4.446;2024-01-10T10:10:36;-1.80;99.90
41294;DHT22;27037;52.010;4.446;2024-01-10T10:13:08;-1.80;99.90
41294;DHT22;27037;52.010;4.446;2024-01-10T10:15:36;-1.70;99.90
41294;DHT22;27037;52.010;4.446;2024-01-10T10:18:02;-1.60;99.90
41294;DHT22;27037;52.010;4.446;2024-01-10T10:20:29;-1.60;99.90
41294;DHT22;27037;52.010;4.446;2024-01-10T10:23:08;-1.60;99.90
41294;DHT22;27037;52.010;4.446;2024-01-10T10:25:47;-1.50;99.90
41294;DHT22;27037;52.010;4.446;2024-01-10T10:28:13;-1.40;99.90
41294;DHT22;27037;52.010;4.446;2024-01-10T10:30:39;-1.30;99.90
41294;DHT22;27037;52.010;4.446;2024-01-10T10:33:05;-1.30;99.90
41294;DHT22;27037;52.010;4.446;2024-01-10T10:35:33;-1.20;99.90
41294;DHT22;27037;52.010;4.446;2024-01-10T10:37:59;-1.20;99.90
41294;DHT22;27037;52.010;4.446;2024-01-10T10:40:25;-1.10;99.90
41294;DHT22;27037;52.010;4.446;2024-01-10T10:42:55;-1.10;99.90
41294;DHT22;27037;52.010;4.446;2024-01-10T10:45:21;-1.00;99.90
41294;DHT22;27037;52.010;4.446;2024-01-10T10:47:57;-1.00;99.90
41294;DHT22;27037;52.010;4.446;2024-01-10T10:50:24;-0.90;99.90
41294;DHT22;27037;52.010;4.446;2024-01-10T10:52:50;-0.90;99.90
41294;DHT22;27037;52.010;4.446;2024-01-10T10:55:20;-0.80;99.90
41294;DHT22;27037;52.010;4.446;2024-01-10T10:57:47;-0.70;99.90
41294;DHT22;27037;52.010;4.446;2024-01-10T11:00:14;-0.70;99.90
41294;DHT22;27037;52.010;4.446;2024-01-10T11:02:44;-0.60;99.90
41294;DHT22;27037;52.010;4.446;2024-01-10T11:05:10;-0.60;99.90
41294;DHT22;27037;52.010;4.446;2024-01-10T11:07:40;-0.60;99.90
41294;DHT22;27037;52.010;4.446;2024-01-10T11:10:13;-0.60;99.90
41294;DHT22;27037;52.010;4.446;2024-01-10T11:23:54;-0.20;99.90
41294;DHT22;27037;52.010;4.446;2024-01-10T11:26:21;-0.20;99.90
41294;DHT22;27037;52.010;4.446;2024-01-10T11:28:47;-0.20;99.90
41294;DHT22;27037;52.010;4.446;2024-01-10T11:31:14;-0.10;99.90
41294;DHT22;27037;52.010;4.446;2024-01-10T11:33:41;-0.10;99.90
41294;DHT22;27037;52.010;4.446;2024-01-10T11:38:42;0.00;99.90
41294;DHT22;27037;52.010;4.446;2024-01-10T11:41:10;0.00;99.90
41294;DHT22;27037;52.010;4.446;2024-01-10T11:43:38;0.10;99.90
41294;DHT22;27037;52.010;4.446;2024-01-10T11:46:03;0.20;99.90
41294;DHT22;27037;52.010;4.446;2024-01-10T11:48:33;0.20;99.90
41294;DHT22;27037;52.010;4.446;2024-01-10T11:51:00;0.20;99.90
41294;DHT22;27037;52.010;4.446;2024-01-10T11:53:41;0.20;99.90
41294;DHT22;27037;52.010;4.446;2024-01-10T11:56:15;0.30;99.90
41294;DHT22;27037;52.010;4.446;2024-01-10T11:59:01;0.30;99.90
41294;DHT22;27037;52.010;4.446;2024-01-10T12:01:30;0.30;99.90
41294;DHT22;27037;52.010;4.446;2024-01-10T12:03:57;0.40;99.90
41294;DHT22;27037;52.010;4.446;2024-01-10T12:06:24;0.40;99.90
41294;DHT22;27037;52.010;4.446;2024-01-10T12:08:50;0.50;99.90
41294;DHT22;27037;52.010;4.446;2024-01-10T12:11:16;0.60;99.90
41294;DHT22;27037;52.010;4.446;2024-01-10T12:13:42;0.60;99.90
41294;DHT22;27037;52.010;4.446;2024-01-10T12:16:08;0.60;99.90
41294;DHT22;27037;52.010;4.446;2024-01-10T12:18:33;0.70;99.90
41294;DHT22;27037;52.010;4.446;2024-01-10T12:20:59;0.70;99.90
41294;DHT22;27037;52.010;4.446;2024-01-10T12:23:26;0.80;99.90
41294;DHT22;27037;52.010;4.446;2024-01-10T12:25:57;0.80;99.90
41294;DHT22;27037;52.010;4.446;2024-01-10T12:28:23;0.80;99.90
41294;DHT22;27037;52.010;4.446;2024-01-10T12:30:50;0.80;99.90
41294;DHT22;27037;52.010;4.446;2024-01-10T12:33:15;0.80;99.90
41294;DHT22;27037;52.010;4.446;2024-01-10T12:35:41;0.90;99.90
41294;DHT22;27037;52.010;4.446;2024-01-10T12:38:10;0.90;99.90
41294;DHT22;27037;52.010;4.446;2024-01-10T12:40:37;0.90;99.90
41294;DHT22;27037;52.010;4.446;2024-01-10T12:43:03;0.90;99.90
41294;DHT22;27037;52.010;4.446;2024-01-10T12:45:29;1.00;99.90
41294;DHT22;27037;52.010;4.446;2024-01-10T12:47:55;1.00;99.90
41294;DHT22;27037;52.010;4.446;2024-01-10T12:50:21;1.00;99.90
41294;DHT22;27037;52.010;4.446;2024-01-10T12:52:46;1.10;99.90
41294;DHT22;27037;52.010;4.446;2024-01-10T12:55:14;1.10;99.90
41294;DHT22;27037;52.010;4.446;2024-01-10T12:57:39;1.10;99.90
41294;DHT22;27037;52.010;4.446;2024-01-10T13:00:05;1.10;99.90
41294;DHT22;27037;52.010;4.446;2024-01-10T13:02:35;1.20;99.90
41294;DHT22;27037;52.010;4.446;2024-01-10T13:05:03;1.20;99.90
41294;DHT22;27037;52.010;4.446;2024-01-10T13:07:29;1.20;99.80
41294;DHT22;27037;52.010;4.446;2024-01-10T13:09:56;1.20;99.50
41294;DHT22;27037;52.010;4.446;2024-01-10T13:12:22;1.30;99.90
41294;DHT22;27037;52.010;4.446;2024-01-10T13:14:48;1.30;99.80
41294;DHT22;27037;52.010;4.446;2024-01-10T13:17:13;1.30;99.60
41294;DHT22;27037;52.010;4.446;2024-01-10T13:19:39;1.40;99.70
41294;DHT22;27037;52.010;4.446;2024-01-10T13:22:05;1.40;99.70
41294;DHT22;27037;52.010;4.446;2024-01-10T13:24:30;1.40;99.20
41294;DHT22;27037;52.010;4.446;2024-01-10T13:26:56;1.40;99.30
41294;DHT22;27037;52.010;4.446;2024-01-10T13:29:22;1.40;99.20
41294;DHT22;27037;52.010;4.446;2024-01-10T13:31:48;1.40;98.60
41294;DHT22;27037;52.010;4.446;2024-01-10T13:34:14;1.40;98.20
41294;DHT22;27037;52.010;4.446;2024-01-10T13:36:40;1.40;98.70
41294;DHT22;27037;52.010;4.446;2024-01-10T13:39:06;1.40;98.40
41294;DHT22;27037;52.010;4.446;2024-01-10T13:41:32;1.40;98.60
41294;DHT22;27037;52.010;4.446;2024-01-10T13:43:59;1.40;98.70
41294;DHT22;27037;52.010;4.446;2024-01-10T13:46:25;1.40;98.60
41294;DHT22;27037;52.010;4.446;2024-01-10T13:48:50;1.40;98.60
41294;DHT22;27037;52.010;4.446;2024-01-10T13:51:16;1.40;98.50
41294;DHT22;27037;52.010;4.446;2024-01-10T13:53:41;1.40;98.60
41294;DHT22;27037;52.010;4.446;2024-01-10T13:56:07;1.40;98.80
41294;DHT22;27037;52.010;4.446;2024-01-10T13:58:33;1.40;99.20
41294;DHT22;27037;52.010;4.446;2024-01-10T14:00:59;1.30;99.30
41294;DHT22;27037;52.010;4.446;2024-01-10T14:03:25;1.30;99.50
41294;DHT22;27037;52.010;4.446;2024-01-10T14:05:52;1.30;99.60
41294;DHT22;27037;52.010;4.446;2024-01-10T14:08:17;1.30;99.80
41294;DHT22;27037;52.010;4.446;2024-01-10T14:10:43;1.30;99.90
41294;DHT22;27037;52.010;4.446;2024-01-10T14:13:08;1.30;99.90
41294;DHT22;27037;52.010;4.446;2024-01-10T14:15:34;1.30;99.90
41294;DHT22;27037;52.010;4.446;2024-01-10T14:18:00;1.30;99.90
41294;DHT22;27037;52.010;4.446;2024-01-10T14:20:25;1.20;99.90
41294;DHT22;27037;52.010;4.446;2024-01-10T14:22:51;1.20;99.90
41294;DHT22;27037;52.010;4.446;2024-01-10T14:25:17;1.20;99.90
41294;DHT22;27037;52.010;4.446;2024-01-10T14:27:42;1.10;99.90
41294;DHT22;27037;52.010;4.446;2024-01-10T14:30:08;1.10;99.90
41294;DHT22;27037;52.010;4.446;2024-01-10T14:32:34;1.10;99.90
41294;DHT22;27037;52.010;4.446;2024-01-10T14:35:00;1.00;99.90
41294;DHT22;27037;52.010;4.446;2024-01-10T14:37:25;1.00;99.90
41294;DHT22;27037;52.010;4.446;2024-01-10T14:39:51;1.00;99.90
41294;DHT22;27037;52.010;4.446;2024-01-10T14:42:16;0.90;99.90
41294;DHT22;27037;52.010;4.446;2024-01-10T14:44:42;0.90;99.90
41294;DHT22;27037;52.010;4.446;2024-01-10T14:47:08;0.80;99.90
41294;DHT22;27037;52.010;4.446;2024-01-10T14:49:34;0.80;99.90
41294;DHT22;27037;52.010;4.446;2024-01-10T14:51:59;0.80;99.90
41294;DHT22;27037;52.010;4.446;2024-01-10T14:54:25;0.70;99.90
41294;DHT22;27037;52.010;4.446;2024-01-10T14:56:50;0.70;99.90
41294;DHT22;27037;52.010;4.446;2024-01-10T14:59:18;0.70;99.90
41294;DHT22;27037;52.010;4.446;2024-01-10T15:01:45;0.70;99.90
41294;DHT22;27037;52.010;4.446;2024-01-10T15:04:11;0.60;99.90
41294;DHT22;27037;52.010;4.446;2024-01-10T15:06:42;0.60;99.90
41294;DHT22;27037;52.010;4.446;2024-01-10T15:09:08;0.60;99.90
41294;DHT22;27037;52.010;4.446;2024-01-10T15:11:35;0.50;99.90
41294;DHT22;27037;52.010;4.446;2024-01-10T15:14:01;0.50;99.90
41294;DHT22;27037;52.010;4.446;2024-01-10T15:16:26;0.40;99.90
41294;DHT22;27037;52.010;4.446;2024-01-10T15:18:52;0.40;99.90
41294;DHT22;27037;52.010;4.446;2024-01-10T15:21:17;0.40;99.90
41294;DHT22;27037;52.010;4.446;2024-01-10T15:23:44;0.40;99.90
41294;DHT22;27037;52.010;4.446;2024-01-10T15:26:15;0.30;99.90
41294;DHT22;27037;52.010;4.446;2024-01-10T15:28:43;0.30;99.90
41294;DHT22;27037;52.010;4.446;2024-01-10T15:31:16;0.30;99.90
41294;DHT22;27037;52.010;4.446;2024-01-10T15:33:42;0.20;99.90
41294;DHT22;27037;52.010;4.446;2024-01-10T15:36:08;0.20;99.90
41294;DHT22;27037;52.010;4.446;2024-01-10T15:38:35;0.20;99.90
41294;DHT22;27037;52.010;4.446;2024-01-10T15:41:02;0.10;99.90
41294;DHT22;27037;52.010;4.446;2024-01-10T15:43:28;0.10;99.90